Pagina principale
METAR-TAF:

METAR-TAF

Aeroporti :

Luni

Sarzana, Italia

latitudine: 44-05N, longitudine: 009-59E, altezza: 9 m

Osservazione

Il bollettino è stato emesso 4 ore e 27 minuti fa, alle 14:55 UTC
Vento 4 kt da nord-est
Temperature 13°C
Umidità 88%
Pressione 1021 hPa
Visibilità: 8000 m
Poco nuvoloso ad un'altezza di 1500 ft
Nubi sparse ad un'altezza di 2500 ft

METAR: LIQW 241455Z 05004KT 8000 FEW015 SCT025 13/11 Q1021 RMK BKN VIS MIN 8000 WIND THR18 10004KT BLU

Ora: 20:22 (19:22 UTC)

Previsione

Il bollettino è stato emesso 8 ore e 22 minuti fa, alle 11:00 UTC
Previsione valida dal 24 alle 12 UTC al 24 alle 21 UTC
Vento 3 kt da direzioni variabili
Visibilità: 8000 m
Nuvoloso ad un'altezza di 2500 ft

TAF: LIQW 241100Z 2412/2421 VRB03KT 8000 BKN025

Osservazioni e previsioni meteorologiche di più di 4000 aeroporti (messaggi METAR e TAF).

Le stazioni disponibili sono rappresentate dai dischi gialli e rossi sulla carta.

Puntare il mouse per vedere il nome della stazione.

Clicca sopra per visualizzare le osservazioni e previsioni meteorologiche.

Per cambiare la mappa : fare clic sui pulsanti verdi con una croce nera per ingrandire, il pulsante verde con un trattino per diminuire, o sulla freccia verde per le mappe adiacenti.


METAR-TAF: